createdAt,value
2018-12-31T00:05:50.528Z,7.30
2018-12-31T00:11:55.162Z,7.30
2018-12-31T00:17:59.735Z,7.30
2018-12-31T00:24:04.295Z,7.30
2018-12-31T00:30:08.921Z,7.30
2018-12-31T00:36:13.487Z,7.30
2018-12-31T00:42:18.056Z,7.40
2018-12-31T00:48:22.699Z,7.40
2018-12-31T00:54:27.268Z,7.40
2018-12-31T01:00:31.850Z,7.40
2018-12-31T01:06:36.416Z,7.20
2018-12-31T01:12:41.353Z,7.10
2018-12-31T01:18:46.025Z,7.00
2018-12-31T01:24:53.109Z,7.00
2018-12-31T01:30:57.695Z,7.00
2018-12-31T01:37:02.268Z,7.00
2018-12-31T01:43:06.837Z,7.00
2018-12-31T01:49:11.416Z,6.90
2018-12-31T01:55:16.034Z,6.90
2018-12-31T02:01:20.620Z,6.90
2018-12-31T02:07:25.222Z,7.00
2018-12-31T02:13:29.815Z,7.00
2018-12-31T02:19:34.457Z,7.00
2018-12-31T02:25:39.129Z,7.00
2018-12-31T02:31:43.711Z,7.10
2018-12-31T02:37:48.281Z,7.10
2018-12-31T02:43:52.928Z,7.20
2018-12-31T02:49:57.800Z,7.30
2018-12-31T02:56:02.406Z,7.30
2018-12-31T03:02:07.051Z,7.30
2018-12-31T03:08:11.614Z,7.40
2018-12-31T03:14:16.261Z,7.40
2018-12-31T03:20:20.828Z,7.30
2018-12-31T03:26:25.396Z,7.40
2018-12-31T03:32:30.052Z,7.30
2018-12-31T03:38:34.618Z,7.40
2018-12-31T03:44:39.173Z,7.40
2018-12-31T03:50:43.800Z,7.40
2018-12-31T03:56:50.407Z,7.40
2018-12-31T04:02:54.671Z,7.40
2018-12-31T04:08:59.244Z,7.40
2018-12-31T04:15:03.863Z,7.40
2018-12-31T04:21:08.579Z,7.40
2018-12-31T04:27:13.205Z,7.40
2018-12-31T04:33:17.779Z,7.50
2018-12-31T04:39:22.436Z,7.50
2018-12-31T04:45:26.991Z,7.40
2018-12-31T04:51:31.562Z,7.40
2018-12-31T04:57:36.137Z,7.40
2018-12-31T05:03:40.703Z,7.50
2018-12-31T05:09:45.300Z,7.40
2018-12-31T05:15:49.889Z,7.50
2018-12-31T05:21:54.434Z,7.50
2018-12-31T05:27:59.026Z,7.50
2018-12-31T05:34:03.644Z,7.50
2018-12-31T05:40:08.275Z,7.50
2018-12-31T05:46:12.866Z,7.50
2018-12-31T05:52:17.506Z,7.50
2018-12-31T05:58:22.075Z,7.50
2018-12-31T06:04:26.629Z,7.50
2018-12-31T06:10:31.179Z,7.50
2018-12-31T06:16:35.751Z,7.50
2018-12-31T06:22:40.352Z,7.50
2018-12-31T06:28:44.913Z,7.50
2018-12-31T06:34:49.477Z,7.60
2018-12-31T06:40:54.180Z,7.60
2018-12-31T06:46:58.770Z,7.60
2018-12-31T06:53:03.378Z,7.60
2018-12-31T06:59:08.042Z,7.60
2018-12-31T07:05:12.680Z,7.50
2018-12-31T07:11:17.244Z,7.50
2018-12-31T07:17:21.829Z,7.60
2018-12-31T07:23:26.431Z,7.60
2018-12-31T07:29:31.079Z,7.50
2018-12-31T07:35:35.640Z,7.60
2018-12-31T07:41:40.248Z,7.70
2018-12-31T07:47:44.780Z,7.70
2018-12-31T07:53:49.348Z,7.60
2018-12-31T07:59:53.911Z,7.70
2018-12-31T08:05:58.469Z,7.80
2018-12-31T08:12:03.051Z,7.80
2018-12-31T08:18:07.687Z,7.80
2018-12-31T08:24:12.318Z,7.80
2018-12-31T08:30:18.833Z,7.80
2018-12-31T08:36:23.403Z,7.90
2018-12-31T08:42:27.965Z,7.90
2018-12-31T08:48:32.525Z,7.90
2018-12-31T08:54:37.088Z,8.00
2018-12-31T09:00:41.666Z,8.10
2018-12-31T09:06:46.268Z,8.10
2018-12-31T09:12:50.915Z,8.20
2018-12-31T09:18:55.558Z,8.20
2018-12-31T09:25:00.160Z,8.20
2018-12-31T09:31:04.763Z,8.20
2018-12-31T09:37:09.444Z,8.20
2018-12-31T09:43:14.083Z,8.30
2018-12-31T09:49:18.737Z,8.30
2018-12-31T09:55:23.314Z,8.40
2018-12-31T10:01:27.943Z,8.40
2018-12-31T10:07:32.506Z,8.50
2018-12-31T10:13:37.057Z,8.60
2018-12-31T10:19:41.613Z,8.60
2018-12-31T10:25:46.177Z,8.60
2018-12-31T10:31:50.750Z,8.50
2018-12-31T10:37:55.338Z,8.60
2018-12-31T10:43:59.948Z,8.70
2018-12-31T10:50:04.717Z,8.70
2018-12-31T10:56:09.306Z,8.80
2018-12-31T11:02:13.909Z,8.80
2018-12-31T11:08:18.486Z,8.80
2018-12-31T11:14:23.048Z,8.80
2018-12-31T11:20:27.635Z,8.70
2018-12-31T11:26:32.194Z,8.70
2018-12-31T11:32:38.409Z,8.70
2018-12-31T11:38:42.967Z,8.70
2018-12-31T11:44:47.509Z,9.00
2018-12-31T11:50:52.058Z,9.00
2018-12-31T11:56:56.628Z,9.00
2018-12-31T12:03:01.259Z,9.00
2018-12-31T12:09:07.539Z,9.00
2018-12-31T12:15:12.186Z,9.00
2018-12-31T12:21:16.846Z,9.00
2018-12-31T12:27:21.371Z,9.00
2018-12-31T12:33:25.957Z,9.10
2018-12-31T12:39:30.516Z,9.10
2018-12-31T12:45:35.075Z,9.10
2018-12-31T12:51:39.700Z,9.20
2018-12-31T12:57:44.542Z,9.20
2018-12-31T13:03:49.180Z,9.20
2018-12-31T13:09:53.751Z,9.30
2018-12-31T13:15:58.303Z,9.30
2018-12-31T13:22:02.878Z,9.40
2018-12-31T13:28:07.826Z,9.50
2018-12-31T13:34:12.378Z,9.50
2018-12-31T13:40:17.013Z,9.50
2018-12-31T13:46:23.135Z,9.50
2018-12-31T13:52:27.727Z,9.60
2018-12-31T13:58:32.373Z,9.60
2018-12-31T14:04:37.804Z,9.60
2018-12-31T14:10:42.350Z,9.60
2018-12-31T14:16:46.929Z,9.50
2018-12-31T14:22:53.023Z,9.60
2018-12-31T14:28:57.598Z,9.60
2018-12-31T14:35:02.161Z,9.60
2018-12-31T14:41:06.758Z,9.60
2018-12-31T14:47:18.078Z,9.70
2018-12-31T14:53:17.620Z,9.60
2018-12-31T14:59:22.276Z,9.50
2018-12-31T15:05:26.855Z,9.50
2018-12-31T15:11:31.409Z,9.50
2018-12-31T15:17:36.240Z,9.40
2018-12-31T15:23:40.862Z,9.30
2018-12-31T15:29:45.424Z,9.30
2018-12-31T15:35:49.987Z,9.30
2018-12-31T15:41:54.541Z,9.30
2018-12-31T15:47:59.141Z,9.30
2018-12-31T15:54:03.712Z,9.30
2018-12-31T16:00:10.201Z,9.30
2018-12-31T16:06:14.762Z,9.30
2018-12-31T16:12:19.399Z,9.30
2018-12-31T16:18:23.957Z,9.30
2018-12-31T16:24:28.515Z,9.20
2018-12-31T16:30:33.083Z,9.30
2018-12-31T16:36:38.004Z,9.30
2018-12-31T16:42:42.626Z,9.30
2018-12-31T16:48:47.175Z,9.30
2018-12-31T16:54:51.825Z,9.20
2018-12-31T17:00:56.378Z,9.20
2018-12-31T17:07:01.006Z,9.20
2018-12-31T17:13:05.633Z,9.10
2018-12-31T17:19:10.209Z,9.00
2018-12-31T17:25:14.835Z,9.00
2018-12-31T17:31:19.434Z,8.90
2018-12-31T17:37:24.003Z,8.70
2018-12-31T17:43:28.573Z,8.70
2018-12-31T17:49:33.142Z,8.70
2018-12-31T17:55:37.710Z,8.60
2018-12-31T18:01:42.715Z,8.60
2018-12-31T18:07:47.279Z,8.50
2018-12-31T18:13:51.832Z,8.50
2018-12-31T18:19:56.392Z,8.40
2018-12-31T18:26:00.988Z,8.40
2018-12-31T18:32:05.622Z,8.30
2018-12-31T18:38:10.175Z,8.30
2018-12-31T18:44:14.747Z,8.30
2018-12-31T18:50:19.318Z,8.30
2018-12-31T18:56:23.896Z,8.30
2018-12-31T19:02:28.452Z,8.40
2018-12-31T19:08:33.261Z,8.40
2018-12-31T19:14:37.859Z,8.50
2018-12-31T19:20:42.495Z,8.40
2018-12-31T19:26:47.057Z,8.40
2018-12-31T19:32:51.613Z,8.40
2018-12-31T19:38:56.182Z,8.40
2018-12-31T19:45:00.826Z,8.50
2018-12-31T19:51:05.399Z,8.50
2018-12-31T19:57:10.033Z,8.60
2018-12-31T20:03:14.656Z,8.60
2018-12-31T20:09:19.611Z,8.70
2018-12-31T20:15:24.188Z,8.70
2018-12-31T20:21:28.792Z,8.70
2018-12-31T20:27:33.378Z,8.70
2018-12-31T20:33:37.943Z,8.80
2018-12-31T20:39:42.529Z,8.80
2018-12-31T20:45:47.110Z,8.90
2018-12-31T20:51:51.653Z,8.80
2018-12-31T20:57:56.214Z,8.90
2018-12-31T21:04:00.839Z,8.90
2018-12-31T21:10:11.809Z,8.90
2018-12-31T21:16:16.371Z,8.90
2018-12-31T21:22:20.925Z,8.90
2018-12-31T21:28:25.513Z,8.90
2018-12-31T21:34:30.442Z,8.90
2018-12-31T21:40:35.024Z,8.90
2018-12-31T21:46:39.587Z,8.90
2018-12-31T21:52:44.147Z,8.90
2018-12-31T21:58:48.778Z,8.80
2018-12-31T22:04:53.358Z,8.80
2018-12-31T22:10:57.919Z,8.80
2018-12-31T22:17:02.473Z,8.80
2018-12-31T22:23:07.087Z,8.70
2018-12-31T22:29:11.715Z,8.70
2018-12-31T22:35:16.287Z,8.70
2018-12-31T22:41:21.206Z,8.70
2018-12-31T22:47:25.786Z,8.70
2018-12-31T22:53:30.350Z,8.70
2018-12-31T22:59:34.919Z,8.70
2018-12-31T23:05:39.916Z,8.70
2018-12-31T23:11:44.601Z,8.70
2018-12-31T23:17:50.888Z,8.60
2018-12-31T23:23:55.422Z,8.50
2018-12-31T23:30:00.172Z,8.50
2018-12-31T23:36:04.716Z,8.40
2018-12-31T23:42:09.279Z,8.40
2018-12-31T23:48:13.836Z,8.40
2018-12-31T23:54:18.402Z,8.40
